sensor_id;sensor_type;location;lat;lon;timestamp;temperature;humidity
15554;DHT22;7878;44.632;10.942;2023-06-10T00:01:44;24.10;99.90
15554;DHT22;7878;44.632;10.942;2023-06-10T00:04:13;24.20;99.90
15554;DHT22;7878;44.632;10.942;2023-06-10T00:06:39;24.20;99.90
15554;DHT22;7878;44.632;10.942;2023-06-10T00:09:05;24.10;99.90
15554;DHT22;7878;44.632;10.942;2023-06-10T00:11:32;24.10;99.90
15554;DHT22;7878;44.632;10.942;2023-06-10T00:13:58;23.90;99.90
15554;DHT22;7878;44.632;10.942;2023-06-10T00:16:24;23.90;99.90
15554;DHT22;7878;44.632;10.942;2023-06-10T00:18:50;23.90;99.90
15554;DHT22;7878;44.632;10.942;2023-06-10T00:21:17;23.90;99.90
15554;DHT22;7878;44.632;10.942;2023-06-10T00:23:42;23.90;99.90
15554;DHT22;7878;44.632;10.942;2023-06-10T00:26:09;23.90;99.90
15554;DHT22;7878;44.632;10.942;2023-06-10T00:28:35;24.00;99.90
15554;DHT22;7878;44.632;10.942;2023-06-10T00:31:01;24.00;99.90
15554;DHT22;7878;44.632;10.942;2023-06-10T00:33:26;24.00;99.90
15554;DHT22;7878;44.632;10.942;2023-06-10T00:35:53;24.00;99.90
15554;DHT22;7878;44.632;10.942;2023-06-10T00:38:19;24.00;99.90
15554;DHT22;7878;44.632;10.942;2023-06-10T00:40:44;24.00;99.90
15554;DHT22;7878;44.632;10.942;2023-06-10T00:43:10;24.10;99.90
15554;DHT22;7878;44.632;10.942;2023-06-10T00:45:36;24.00;99.90
15554;DHT22;7878;44.632;10.942;2023-06-10T00:48:02;24.10;99.90
15554;DHT22;7878;44.632;10.942;2023-06-10T00:50:29;24.10;99.90
15554;DHT22;7878;44.632;10.942;2023-06-10T00:52:58;24.10;99.90
15554;DHT22;7878;44.632;10.942;2023-06-10T00:55:25;24.10;99.90
15554;DHT22;7878;44.632;10.942;2023-06-10T00:57:53;24.10;99.90
15554;DHT22;7878;44.632;10.942;2023-06-10T01:00:19;24.10;99.90
15554;DHT22;7878;44.632;10.942;2023-06-10T01:02:45;24.10;99.90
15554;DHT22;7878;44.632;10.942;2023-06-10T01:05:11;24.00;99.90
15554;DHT22;7878;44.632;10.942;2023-06-10T01:10:50;24.00;99.90
15554;DHT22;7878;44.632;10.942;2023-06-10T01:13:15;24.00;99.90
15554;DHT22;7878;44.632;10.942;2023-06-10T01:15:41;24.00;99.90
15554;DHT22;7878;44.632;10.942;2023-06-10T01:18:09;24.00;99.90
15554;DHT22;7878;44.632;10.942;2023-06-10T01:20:37;23.90;99.90
15554;DHT22;7878;44.632;10.942;2023-06-10T01:23:06;23.90;99.90
15554;DHT22;7878;44.632;10.942;2023-06-10T01:25:33;23.90;99.90
15554;DHT22;7878;44.632;10.942;2023-06-10T01:28:31;23.90;99.90
15554;DHT22;7878;44.632;10.942;2023-06-10T01:33:46;23.90;99.90
15554;DHT22;7878;44.632;10.942;2023-06-10T01:36:13;23.90;99.90
15554;DHT22;7878;44.632;10.942;2023-06-10T01:38:43;23.90;99.90
15554;DHT22;7878;44.632;10.942;2023-06-10T01:41:11;23.80;99.90
15554;DHT22;7878;44.632;10.942;2023-06-10T01:43:38;23.80;99.90
15554;DHT22;7878;44.632;10.942;2023-06-10T01:46:05;23.70;99.90
15554;DHT22;7878;44.632;10.942;2023-06-10T01:48:31;23.60;99.90
15554;DHT22;7878;44.632;10.942;2023-06-10T01:50:57;23.70;99.90
15554;DHT22;7878;44.632;10.942;2023-06-10T01:53:22;23.70;99.90
15554;DHT22;7878;44.632;10.942;2023-06-10T01:55:48;23.70;99.90
15554;DHT22;7878;44.632;10.942;2023-06-10T01:58:14;23.70;99.90
15554;DHT22;7878;44.632;10.942;2023-06-10T02:00:40;23.70;99.90
15554;DHT22;7878;44.632;10.942;2023-06-10T02:03:05;23.70;99.90
15554;DHT22;7878;44.632;10.942;2023-06-10T02:05:31;23.70;99.90
15554;DHT22;7878;44.632;10.942;2023-06-10T02:07:57;23.70;99.90
15554;DHT22;7878;44.632;10.942;2023-06-10T02:10:23;23.70;99.90
15554;DHT22;7878;44.632;10.942;2023-06-10T02:12:49;23.70;99.90
15554;DHT22;7878;44.632;10.942;2023-06-10T02:15:14;23.70;99.90
15554;DHT22;7878;44.632;10.942;2023-06-10T02:17:40;23.60;99.90
15554;DHT22;7878;44.632;10.942;2023-06-10T02:20:06;23.60;99.90
15554;DHT22;7878;44.632;10.942;2023-06-10T02:22:33;23.60;99.90
15554;DHT22;7878;44.632;10.942;2023-06-10T02:24:59;23.60;99.90
15554;DHT22;7878;44.632;10.942;2023-06-10T02:27:24;23.60;99.90
15554;DHT22;7878;44.632;10.942;2023-06-10T02:29:50;23.50;99.90
15554;DHT22;7878;44.632;10.942;2023-06-10T02:32:16;23.50;99.90
15554;DHT22;7878;44.632;10.942;2023-06-10T02:34:42;23.50;99.90
15554;DHT22;7878;44.632;10.942;2023-06-10T02:37:09;23.50;99.90
15554;DHT22;7878;44.632;10.942;2023-06-10T02:39:34;23.60;99.90
15554;DHT22;7878;44.632;10.942;2023-06-10T02:42:00;23.60;99.90
15554;DHT22;7878;44.632;10.942;2023-06-10T02:44:26;23.60;99.90
15554;DHT22;7878;44.632;10.942;2023-06-10T02:46:51;23.60;99.90
15554;DHT22;7878;44.632;10.942;2023-06-10T02:49:17;23.50;99.90
15554;DHT22;7878;44.632;10.942;2023-06-10T02:51:43;23.50;99.90
15554;DHT22;7878;44.632;10.942;2023-06-10T02:54:08;23.50;99.90
15554;DHT22;7878;44.632;10.942;2023-06-10T02:56:34;23.50;99.90
15554;DHT22;7878;44.632;10.942;2023-06-10T02:59:00;23.50;99.90
15554;DHT22;7878;44.632;10.942;2023-06-10T03:01:26;23.50;99.90
15554;DHT22;7878;44.632;10.942;2023-06-10T03:03:51;23.50;99.90
15554;DHT22;7878;44.632;10.942;2023-06-10T03:06:18;23.50;99.90
15554;DHT22;7878;44.632;10.942;2023-06-10T03:08:44;23.50;99.90
15554;DHT22;7878;44.632;10.942;2023-06-10T03:11:11;23.50;99.90
15554;DHT22;7878;44.632;10.942;2023-06-10T03:13:38;23.50;99.90
15554;DHT22;7878;44.632;10.942;2023-06-10T03:16:03;23.40;99.90
15554;DHT22;7878;44.632;10.942;2023-06-10T03:18:30;23.50;99.90
15554;DHT22;7878;44.632;10.942;2023-06-10T03:20:55;23.50;99.90
15554;DHT22;7878;44.632;10.942;2023-06-10T03:23:22;23.40;99.90
15554;DHT22;7878;44.632;10.942;2023-06-10T03:25:49;23.40;99.90
15554;DHT22;7878;44.632;10.942;2023-06-10T03:28:15;23.30;99.90
15554;DHT22;7878;44.632;10.942;2023-06-10T03:30:40;23.30;99.90
15554;DHT22;7878;44.632;10.942;2023-06-10T03:33:06;23.30;99.90
15554;DHT22;7878;44.632;10.942;2023-06-10T03:35:32;23.30;99.90
15554;DHT22;7878;44.632;10.942;2023-06-10T03:37:58;23.20;99.90
15554;DHT22;7878;44.632;10.942;2023-06-10T03:40:24;23.20;99.90
15554;DHT22;7878;44.632;10.942;2023-06-10T03:42:50;23.20;99.90
15554;DHT22;7878;44.632;10.942;2023-06-10T03:45:16;23.20;99.90
15554;DHT22;7878;44.632;10.942;2023-06-10T03:47:41;23.20;99.90
15554;DHT22;7878;44.632;10.942;2023-06-10T03:50:08;23.20;99.90
15554;DHT22;7878;44.632;10.942;2023-06-10T03:52:35;23.10;99.90
15554;DHT22;7878;44.632;10.942;2023-06-10T03:55:02;23.10;99.90
15554;DHT22;7878;44.632;10.942;2023-06-10T03:57:28;23.10;99.90
15554;DHT22;7878;44.632;10.942;2023-06-10T03:59:54;23.20;99.90
15554;DHT22;7878;44.632;10.942;2023-06-10T04:02:20;23.20;99.90
15554;DHT22;7878;44.632;10.942;2023-06-10T04:04:46;23.20;99.90
15554;DHT22;7878;44.632;10.942;2023-06-10T04:07:12;23.20;99.90
15554;DHT22;7878;44.632;10.942;2023-06-10T04:09:39;23.20;99.90
15554;DHT22;7878;44.632;10.942;2023-06-10T04:12:05;23.10;99.90
15554;DHT22;7878;44.632;10.942;2023-06-10T04:14:36;23.20;99.90
15554;DHT22;7878;44.632;10.942;2023-06-10T04:17:04;23.20;99.90
15554;DHT22;7878;44.632;10.942;2023-06-10T04:19:32;23.20;99.90
15554;DHT22;7878;44.632;10.942;2023-06-10T04:21:57;23.20;99.90
15554;DHT22;7878;44.632;10.942;2023-06-10T04:24:23;23.20;99.90
15554;DHT22;7878;44.632;10.942;2023-06-10T04:26:49;23.30;99.90
15554;DHT22;7878;44.632;10.942;2023-06-10T04:29:15;23.30;99.90
15554;DHT22;7878;44.632;10.942;2023-06-10T04:31:40;23.30;99.90
15554;DHT22;7878;44.632;10.942;2023-06-10T04:34:06;23.30;99.90
15554;DHT22;7878;44.632;10.942;2023-06-10T04:36:33;23.40;99.90
15554;DHT22;7878;44.632;10.942;2023-06-10T04:38:58;23.40;99.90
15554;DHT22;7878;44.632;10.942;2023-06-10T04:41:24;23.40;99.90
15554;DHT22;7878;44.632;10.942;2023-06-10T04:43:51;23.40;99.90
15554;DHT22;7878;44.632;10.942;2023-06-10T04:46:17;23.40;99.90
15554;DHT22;7878;44.632;10.942;2023-06-10T04:48:42;23.40;99.90
15554;DHT22;7878;44.632;10.942;2023-06-10T04:51:10;23.40;99.90
15554;DHT22;7878;44.632;10.942;2023-06-10T04:53:35;23.40;99.90
15554;DHT22;7878;44.632;10.942;2023-06-10T04:56:01;23.40;99.90
15554;DHT22;7878;44.632;10.942;2023-06-10T04:58:27;23.40;99.90
15554;DHT22;7878;44.632;10.942;2023-06-10T05:00:53;23.40;99.90
15554;DHT22;7878;44.632;10.942;2023-06-10T05:03:18;23.40;99.90
15554;DHT22;7878;44.632;10.942;2023-06-10T05:05:44;23.40;99.90
15554;DHT22;7878;44.632;10.942;2023-06-10T05:08:10;23.40;99.90
15554;DHT22;7878;44.632;10.942;2023-06-10T05:10:35;23.40;99.90
15554;DHT22;7878;44.632;10.942;2023-06-10T05:13:01;23.40;99.90
15554;DHT22;7878;44.632;10.942;2023-06-10T05:15:28;23.40;99.90
15554;DHT22;7878;44.632;10.942;2023-06-10T05:17:56;23.40;99.90
15554;DHT22;7878;44.632;10.942;2023-06-10T05:20:23;23.50;99.90
15554;DHT22;7878;44.632;10.942;2023-06-10T05:22:50;23.50;99.90
15554;DHT22;7878;44.632;10.942;2023-06-10T05:25:16;23.50;99.90
15554;DHT22;7878;44.632;10.942;2023-06-10T05:27:42;23.50;99.90
15554;DHT22;7878;44.632;10.942;2023-06-10T05:30:10;23.50;99.90
15554;DHT22;7878;44.632;10.942;2023-06-10T05:32:36;23.60;99.90
15554;DHT22;7878;44.632;10.942;2023-06-10T05:35:01;23.60;99.90
15554;DHT22;7878;44.632;10.942;2023-06-10T05:37:29;23.60;99.90
15554;DHT22;7878;44.632;10.942;2023-06-10T05:39:54;23.70;99.90
15554;DHT22;7878;44.632;10.942;2023-06-10T05:42:20;23.70;99.90
15554;DHT22;7878;44.632;10.942;2023-06-10T05:44:46;23.70;99.90
15554;DHT22;7878;44.632;10.942;2023-06-10T05:47:11;23.70;99.90
15554;DHT22;7878;44.632;10.942;2023-06-10T05:49:37;23.80;99.90
15554;DHT22;7878;44.632;10.942;2023-06-10T05:52:03;23.80;99.90
15554;DHT22;7878;44.632;10.942;2023-06-10T05:54:28;23.80;99.90
15554;DHT22;7878;44.632;10.942;2023-06-10T05:56:54;23.80;99.90
15554;DHT22;7878;44.632;10.942;2023-06-10T05:59:20;23.90;99.90
15554;DHT22;7878;44.632;10.942;2023-06-10T06:01:45;23.90;99.90
15554;DHT22;7878;44.632;10.942;2023-06-10T06:04:11;23.90;99.90
15554;DHT22;7878;44.632;10.942;2023-06-10T06:06:39;23.90;99.90
15554;DHT22;7878;44.632;10.942;2023-06-10T06:09:05;23.90;99.90
15554;DHT22;7878;44.632;10.942;2023-06-10T06:11:31;24.00;99.90
15554;DHT22;7878;44.632;10.942;2023-06-10T06:13:57;24.10;99.90
15554;DHT22;7878;44.632;10.942;2023-06-10T06:16:23;24.10;99.90
15554;DHT22;7878;44.632;10.942;2023-06-10T06:18:48;24.10;99.90
15554;DHT22;7878;44.632;10.942;2023-06-10T06:21:14;24.10;99.90
15554;DHT22;7878;44.632;10.942;2023-06-10T06:23:40;24.20;99.90
15554;DHT22;7878;44.632;10.942;2023-06-10T06:26:05;24.20;99.90
15554;DHT22;7878;44.632;10.942;2023-06-10T06:28:31;24.20;99.90
15554;DHT22;7878;44.632;10.942;2023-06-10T06:30:57;24.30;99.90
15554;DHT22;7878;44.632;10.942;2023-06-10T06:33:22;24.30;99.90
15554;DHT22;7878;44.632;10.942;2023-06-10T06:35:48;24.30;99.90
15554;DHT22;7878;44.632;10.942;2023-06-10T06:38:13;24.30;99.90
15554;DHT22;7878;44.632;10.942;2023-06-10T06:40:39;24.40;99.90
15554;DHT22;7878;44.632;10.942;2023-06-10T06:43:05;24.40;99.90
15554;DHT22;7878;44.632;10.942;2023-06-10T06:45:31;24.40;99.90
15554;DHT22;7878;44.632;10.942;2023-06-10T06:47:59;24.50;99.90
15554;DHT22;7878;44.632;10.942;2023-06-10T06:50:25;24.50;99.90
15554;DHT22;7878;44.632;10.942;2023-06-10T06:52:50;24.50;99.90
15554;DHT22;7878;44.632;10.942;2023-06-10T06:55:16;24.50;99.90
15554;DHT22;7878;44.632;10.942;2023-06-10T06:57:42;24.60;99.90
15554;DHT22;7878;44.632;10.942;2023-06-10T07:00:07;24.50;99.90
15554;DHT22;7878;44.632;10.942;2023-06-10T07:02:35;24.60;99.90
15554;DHT22;7878;44.632;10.942;2023-06-10T07:05:01;24.60;99.90
15554;DHT22;7878;44.632;10.942;2023-06-10T07:07:26;24.60;99.90
15554;DHT22;7878;44.632;10.942;2023-06-10T07:09:52;24.70;99.90
15554;DHT22;7878;44.632;10.942;2023-06-10T07:12:18;24.70;99.90
15554;DHT22;7878;44.632;10.942;2023-06-10T07:14:44;24.70;99.90
15554;DHT22;7878;44.632;10.942;2023-06-10T07:17:10;24.80;99.90
15554;DHT22;7878;44.632;10.942;2023-06-10T07:19:35;24.70;99.90
15554;DHT22;7878;44.632;10.942;2023-06-10T07:22:01;24.70;99.90
15554;DHT22;7878;44.632;10.942;2023-06-10T07:24:27;24.70;99.90
15554;DHT22;7878;44.632;10.942;2023-06-10T07:26:52;24.70;99.90
15554;DHT22;7878;44.632;10.942;2023-06-10T07:29:18;24.70;99.90
15554;DHT22;7878;44.632;10.942;2023-06-10T07:31:43;24.70;99.90
15554;DHT22;7878;44.632;10.942;2023-06-10T07:34:09;24.80;99.90
15554;DHT22;7878;44.632;10.942;2023-06-10T07:36:35;24.80;99.90
15554;DHT22;7878;44.632;10.942;2023-06-10T07:39:01;24.90;99.90
15554;DHT22;7878;44.632;10.942;2023-06-10T07:41:27;24.90;99.90
15554;DHT22;7878;44.632;10.942;2023-06-10T07:43:53;25.00;99.90
15554;DHT22;7878;44.632;10.942;2023-06-10T07:46:23;25.00;99.90
15554;DHT22;7878;44.632;10.942;2023-06-10T07:48:49;25.00;99.90
15554;DHT22;7878;44.632;10.942;2023-06-10T07:51:16;25.00;99.90
15554;DHT22;7878;44.632;10.942;2023-06-10T07:53:41;25.00;99.90
15554;DHT22;7878;44.632;10.942;2023-06-10T07:56:07;25.10;99.90
15554;DHT22;7878;44.632;10.942;2023-06-10T07:58:33;25.10;99.90
15554;DHT22;7878;44.632;10.942;2023-06-10T08:00:58;25.10;99.90
15554;DHT22;7878;44.632;10.942;2023-06-10T08:03:24;25.10;99.90
15554;DHT22;7878;44.632;10.942;2023-06-10T08:05:50;25.20;99.90
15554;DHT22;7878;44.632;10.942;2023-06-10T08:08:15;25.20;99.90
15554;DHT22;7878;44.632;10.942;2023-06-10T08:10:41;25.20;99.90
15554;DHT22;7878;44.632;10.942;2023-06-10T08:13:08;25.20;99.90
15554;DHT22;7878;44.632;10.942;2023-06-10T08:15:33;25.20;99.90
15554;DHT22;7878;44.632;10.942;2023-06-10T08:18:00;25.10;99.90
15554;DHT22;7878;44.632;10.942;2023-06-10T08:20:26;25.10;99.90
15554;DHT22;7878;44.632;10.942;2023-06-10T08:22:52;25.10;99.90
15554;DHT22;7878;44.632;10.942;2023-06-10T08:25:17;25.10;99.90
15554;DHT22;7878;44.632;10.942;2023-06-10T08:27:43;25.10;99.90
15554;DHT22;7878;44.632;10.942;2023-06-10T08:30:09;25.10;99.90
15554;DHT22;7878;44.632;10.942;2023-06-10T08:32:36;25.10;99.90
15554;DHT22;7878;44.632;10.942;2023-06-10T08:35:02;25.10;99.90
15554;DHT22;7878;44.632;10.942;2023-06-10T08:37:29;25.20;99.90
15554;DHT22;7878;44.632;10.942;2023-06-10T08:39:55;25.20;99.90
15554;DHT22;7878;44.632;10.942;2023-06-10T08:42:40;25.20;99.90
15554;DHT22;7878;44.632;10.942;2023-06-10T08:45:12;25.20;99.90
15554;DHT22;7878;44.632;10.942;2023-06-10T08:47:39;25.20;99.90
15554;DHT22;7878;44.632;10.942;2023-06-10T08:50:08;25.20;99.90
15554;DHT22;7878;44.632;10.942;2023-06-10T08:52:36;25.30;99.90
15554;DHT22;7878;44.632;10.942;2023-06-10T08:57:52;25.20;99.90
15554;DHT22;7878;44.632;10.942;2023-06-10T09:00:18;25.30;99.90
15554;DHT22;7878;44.632;10.942;2023-06-10T09:02:44;25.20;99.90
15554;DHT22;7878;44.632;10.942;2023-06-10T09:05:10;25.20;99.90
15554;DHT22;7878;44.632;10.942;2023-06-10T09:07:36;25.20;99.90
15554;DHT22;7878;44.632;10.942;2023-06-10T09:10:03;25.20;99.90
15554;DHT22;7878;44.632;10.942;2023-06-10T09:12:29;25.20;99.90
15554;DHT22;7878;44.632;10.942;2023-06-10T09:14:55;25.20;99.90
15554;DHT22;7878;44.632;10.942;2023-06-10T09:17:22;25.20;99.90
15554;DHT22;7878;44.632;10.942;2023-06-10T09:19:47;25.30;99.90
15554;DHT22;7878;44.632;10.942;2023-06-10T09:22:14;25.30;99.90
15554;DHT22;7878;44.632;10.942;2023-06-10T09:24:40;25.40;99.90
15554;DHT22;7878;44.632;10.942;2023-06-10T09:27:08;25.40;99.90
15554;DHT22;7878;44.632;10.942;2023-06-10T09:29:48;25.40;99.90
15554;DHT22;7878;44.632;10.942;2023-06-10T09:32:18;25.30;99.90
15554;DHT22;7878;44.632;10.942;2023-06-10T09:34:44;25.40;99.90
15554;DHT22;7878;44.632;10.942;2023-06-10T09:37:10;25.40;99.90
15554;DHT22;7878;44.632;10.942;2023-06-10T09:39:39;25.30;99.90
15554;DHT22;7878;44.632;10.942;2023-06-10T09:42:16;25.30;99.90
15554;DHT22;7878;44.632;10.942;2023-06-10T09:44:46;25.20;99.90
15554;DHT22;7878;44.632;10.942;2023-06-10T09:47:20;25.20;99.90
15554;DHT22;7878;44.632;10.942;2023-06-10T09:49:46;25.20;99.90
15554;DHT22;7878;44.632;10.942;2023-06-10T09:52:12;25.20;99.90
15554;DHT22;7878;44.632;10.942;2023-06-10T09:54:37;25.20;99.90
15554;DHT22;7878;44.632;10.942;2023-06-10T09:57:07;25.20;99.90
15554;DHT22;7878;44.632;10.942;2023-06-10T09:59:35;25.10;99.90
15554;DHT22;7878;44.632;10.942;2023-06-10T10:02:02;25.10;99.90
15554;DHT22;7878;44.632;10.942;2023-06-10T10:04:30;25.10;99.90
15554;DHT22;7878;44.632;10.942;2023-06-10T10:06:56;25.10;99.90
15554;DHT22;7878;44.632;10.942;2023-06-10T10:09:22;25.10;99.90
15554;DHT22;7878;44.632;10.942;2023-06-10T10:11:48;25.10;99.90
15554;DHT22;7878;44.632;10.942;2023-06-10T10:14:15;25.20;99.90
15554;DHT22;7878;44.632;10.942;2023-06-10T10:16:42;25.20;99.90
15554;DHT22;7878;44.632;10.942;2023-06-10T10:19:13;25.20;99.90
15554;DHT22;7878;44.632;10.942;2023-06-10T10:21:54;25.20;99.90
15554;DHT22;7878;44.632;10.942;2023-06-10T10:24:21;25.20;99.90
15554;DHT22;7878;44.632;10.942;2023-06-10T10:26:50;25.20;99.90
15554;DHT22;7878;44.632;10.942;2023-06-10T10:29:31;25.10;99.90
15554;DHT22;7878;44.632;10.942;2023-06-10T10:31:59;25.20;99.90
15554;DHT22;7878;44.632;10.942;2023-06-10T10:37:26;25.10;99.90
15554;DHT22;7878;44.632;10.942;2023-06-10T10:39:52;25.20;99.90
15554;DHT22;7878;44.632;10.942;2023-06-10T10:42:18;25.10;99.90
15554;DHT22;7878;44.632;10.942;2023-06-10T10:44:44;25.20;99.90
15554;DHT22;7878;44.632;10.942;2023-06-10T10:47:10;25.20;99.90
15554;DHT22;7878;44.632;10.942;2023-06-10T10:49:37;25.20;99.90
15554;DHT22;7878;44.632;10.942;2023-06-10T10:52:04;25.20;99.90
15554;DHT22;7878;44.632;10.942;2023-06-10T10:54:35;25.20;99.90
15554;DHT22;7878;44.632;10.942;2023-06-10T10:57:12;25.10;99.90
15554;DHT22;7878;44.632;10.942;2023-06-10T11:02:17;25.00;99.90
15554;DHT22;7878;44.632;10.942;2023-06-10T11:04:47;25.00;99.90
15554;DHT22;7878;44.632;10.942;2023-06-10T11:07:13;25.00;99.90
15554;DHT22;7878;44.632;10.942;2023-06-10T11:10:02;25.00;99.90
15554;DHT22;7878;44.632;10.942;2023-06-10T11:12:53;24.90;99.90
15554;DHT22;7878;44.632;10.942;2023-06-10T11:15:24;24.90;99.90
15554;DHT22;7878;44.632;10.942;2023-06-10T11:18:09;25.00;99.90
15554;DHT22;7878;44.632;10.942;2023-06-10T11:23:24;25.00;99.90
15554;DHT22;7878;44.632;10.942;2023-06-10T11:25:50;25.00;99.90
15554;DHT22;7878;44.632;10.942;2023-06-10T11:28:19;25.00;99.90
15554;DHT22;7878;44.632;10.942;2023-06-10T11:30:46;25.00;99.90
15554;DHT22;7878;44.632;10.942;2023-06-10T11:33:16;25.10;99.90
15554;DHT22;7878;44.632;10.942;2023-06-10T11:35:43;25.00;99.90
15554;DHT22;7878;44.632;10.942;2023-06-10T11:38:09;25.00;99.90
15554;DHT22;7878;44.632;10.942;2023-06-10T11:40:36;25.00;99.90
15554;DHT22;7878;44.632;10.942;2023-06-10T11:43:03;25.00;99.90
15554;DHT22;7878;44.632;10.942;2023-06-10T11:45:29;25.00;99.90
15554;DHT22;7878;44.632;10.942;2023-06-10T11:47:59;25.00;99.90
15554;DHT22;7878;44.632;10.942;2023-06-10T11:50:30;25.10;99.90
15554;DHT22;7878;44.632;10.942;2023-06-10T11:52:55;25.00;99.90
15554;DHT22;7878;44.632;10.942;2023-06-10T11:55:21;25.00;99.90
15554;DHT22;7878;44.632;10.942;2023-06-10T11:57:47;25.10;99.90
15554;DHT22;7878;44.632;10.942;2023-06-10T12:00:14;25.10;99.90
15554;DHT22;7878;44.632;10.942;2023-06-10T12:02:40;25.10;99.90
15554;DHT22;7878;44.632;10.942;2023-06-10T12:05:12;25.10;99.90
15554;DHT22;7878;44.632;10.942;2023-06-10T12:07:38;25.00;99.90
15554;DHT22;7878;44.632;10.942;2023-06-10T12:10:04;25.00;99.90
15554;DHT22;7878;44.632;10.942;2023-06-10T12:12:30;25.00;99.90
15554;DHT22;7878;44.632;10.942;2023-06-10T12:14:57;25.00;99.90
15554;DHT22;7878;44.632;10.942;2023-06-10T12:20:03;25.00;99.90
15554;DHT22;7878;44.632;10.942;2023-06-10T12:22:40;25.00;99.90
15554;DHT22;7878;44.632;10.942;2023-06-10T12:25:06;24.90;99.90
15554;DHT22;7878;44.632;10.942;2023-06-10T12:27:34;25.00;99.90
15554;DHT22;7878;44.632;10.942;2023-06-10T12:30:01;24.90;99.90
15554;DHT22;7878;44.632;10.942;2023-06-10T12:32:45;25.00;99.90
15554;DHT22;7878;44.632;10.942;2023-06-10T12:35:13;24.90;99.90
15554;DHT22;7878;44.632;10.942;2023-06-10T12:37:40;25.00;99.90
15554;DHT22;7878;44.632;10.942;2023-06-10T12:40:07;25.00;99.90
15554;DHT22;7878;44.632;10.942;2023-06-10T12:42:35;25.00;99.90
15554;DHT22;7878;44.632;10.942;2023-06-10T12:45:02;25.00;99.90
15554;DHT22;7878;44.632;10.942;2023-06-10T12:47:32;25.00;99.90
15554;DHT22;7878;44.632;10.942;2023-06-10T12:50:00;25.10;99.90
15554;DHT22;7878;44.632;10.942;2023-06-10T12:52:27;25.20;99.90
15554;DHT22;7878;44.632;10.942;2023-06-10T12:54:53;25.20;99.90
15554;DHT22;7878;44.632;10.942;2023-06-10T12:57:23;25.30;99.90
15554;DHT22;7878;44.632;10.942;2023-06-10T12:59:48;25.40;99.90
15554;DHT22;7878;44.632;10.942;2023-06-10T13:02:25;25.40;99.90
15554;DHT22;7878;44.632;10.942;2023-06-10T13:04:51;25.40;99.90
15554;DHT22;7878;44.632;10.942;2023-06-10T13:07:17;25.50;99.90
15554;DHT22;7878;44.632;10.942;2023-06-10T13:09:43;25.60;99.90
15554;DHT22;7878;44.632;10.942;2023-06-10T13:12:09;25.60;99.90
15554;DHT22;7878;44.632;10.942;2023-06-10T13:14:36;25.60;99.90
15554;DHT22;7878;44.632;10.942;2023-06-10T13:17:06;25.60;99.90
15554;DHT22;7878;44.632;10.942;2023-06-10T13:19:32;25.50;99.90
15554;DHT22;7878;44.632;10.942;2023-06-10T13:21:58;25.50;99.90
15554;DHT22;7878;44.632;10.942;2023-06-10T13:24:24;25.50;99.90
15554;DHT22;7878;44.632;10.942;2023-06-10T13:26:50;25.60;99.90
15554;DHT22;7878;44.632;10.942;2023-06-10T13:29:15;25.60;99.90
15554;DHT22;7878;44.632;10.942;2023-06-10T13:31:41;25.60;99.90
15554;DHT22;7878;44.632;10.942;2023-06-10T13:34:08;25.60;99.90
15554;DHT22;7878;44.632;10.942;2023-06-10T13:36:33;25.60;99.90
15554;DHT22;7878;44.632;10.942;2023-06-10T13:38:59;25.50;99.90
15554;DHT22;7878;44.632;10.942;2023-06-10T13:41:25;25.50;99.90
15554;DHT22;7878;44.632;10.942;2023-06-10T13:43:54;25.40;99.90
15554;DHT22;7878;44.632;10.942;2023-06-10T13:46:20;25.50;99.90
15554;DHT22;7878;44.632;10.942;2023-06-10T13:48:47;25.50;99.90
15554;DHT22;7878;44.632;10.942;2023-06-10T13:51:13;25.60;99.90
15554;DHT22;7878;44.632;10.942;2023-06-10T13:53:38;25.70;99.90
15554;DHT22;7878;44.632;10.942;2023-06-10T13:56:04;25.70;99.90
15554;DHT22;7878;44.632;10.942;2023-06-10T13:58:30;25.70;99.90
15554;DHT22;7878;44.632;10.942;2023-06-10T14:00:56;25.80;99.90
15554;DHT22;7878;44.632;10.942;2023-06-10T14:03:23;25.90;99.90
15554;DHT22;7878;44.632;10.942;2023-06-10T14:05:49;25.90;99.90
15554;DHT22;7878;44.632;10.942;2023-06-10T14:08:15;25.90;99.90
15554;DHT22;7878;44.632;10.942;2023-06-10T14:10:41;25.90;99.90
15554;DHT22;7878;44.632;10.942;2023-06-10T14:13:06;25.90;99.90
15554;DHT22;7878;44.632;10.942;2023-06-10T14:15:32;25.90;99.90
15554;DHT22;7878;44.632;10.942;2023-06-10T14:17:58;25.90;99.90
15554;DHT22;7878;44.632;10.942;2023-06-10T14:20:23;25.90;99.90
15554;DHT22;7878;44.632;10.942;2023-06-10T14:22:50;25.80;99.90
15554;DHT22;7878;44.632;10.942;2023-06-10T14:25:16;25.70;99.90
15554;DHT22;7878;44.632;10.942;2023-06-10T14:27:43;25.60;99.90
15554;DHT22;7878;44.632;10.942;2023-06-10T14:30:08;25.50;99.90
15554;DHT22;7878;44.632;10.942;2023-06-10T14:32:34;25.50;99.90
15554;DHT22;7878;44.632;10.942;2023-06-10T14:35:00;25.50;99.90
15554;DHT22;7878;44.632;10.942;2023-06-10T14:37:25;25.40;99.90
15554;DHT22;7878;44.632;10.942;2023-06-10T14:39:51;25.40;99.90
15554;DHT22;7878;44.632;10.942;2023-06-10T14:42:17;25.40;99.90
15554;DHT22;7878;44.632;10.942;2023-06-10T14:44:42;25.40;99.90
15554;DHT22;7878;44.632;10.942;2023-06-10T14:47:08;25.40;99.90
15554;DHT22;7878;44.632;10.942;2023-06-10T14:49:34;25.40;99.90
15554;DHT22;7878;44.632;10.942;2023-06-10T14:51:59;25.40;99.90
15554;DHT22;7878;44.632;10.942;2023-06-10T14:54:25;25.30;99.90
15554;DHT22;7878;44.632;10.942;2023-06-10T14:56:51;25.30;99.90
15554;DHT22;7878;44.632;10.942;2023-06-10T14:59:16;25.30;99.90
15554;DHT22;7878;44.632;10.942;2023-06-10T15:01:42;25.40;99.90
15554;DHT22;7878;44.632;10.942;2023-06-10T15:04:07;25.30;99.90
15554;DHT22;7878;44.632;10.942;2023-06-10T15:06:33;25.20;99.90
15554;DHT22;7878;44.632;10.942;2023-06-10T15:08:59;25.20;99.90
15554;DHT22;7878;44.632;10.942;2023-06-10T15:11:24;25.10;99.90
15554;DHT22;7878;44.632;10.942;2023-06-10T15:13:51;25.10;99.90
15554;DHT22;7878;44.632;10.942;2023-06-10T15:16:16;25.00;99.90
15554;DHT22;7878;44.632;10.942;2023-06-10T15:18:42;25.00;99.90
15554;DHT22;7878;44.632;10.942;2023-06-10T15:21:08;24.90;99.90
15554;DHT22;7878;44.632;10.942;2023-06-10T15:23:33;24.90;99.90
15554;DHT22;7878;44.632;10.942;2023-06-10T15:25:59;24.80;99.90
15554;DHT22;7878;44.632;10.942;2023-06-10T15:28:24;24.80;99.90
15554;DHT22;7878;44.632;10.942;2023-06-10T15:30:50;24.80;99.90
15554;DHT22;7878;44.632;10.942;2023-06-10T15:33:16;24.80;99.90
15554;DHT22;7878;44.632;10.942;2023-06-10T15:35:41;24.70;99.90
15554;DHT22;7878;44.632;10.942;2023-06-10T15:38:07;24.70;99.90
15554;DHT22;7878;44.632;10.942;2023-06-10T15:40:33;24.70;99.90
15554;DHT22;7878;44.632;10.942;2023-06-10T15:42:59;24.60;99.90
15554;DHT22;7878;44.632;10.942;2023-06-10T15:45:24;24.60;99.90
15554;DHT22;7878;44.632;10.942;2023-06-10T15:47:50;24.60;99.90